Archival Weather

Tokyo Intl

Tokyo, Japan (RJTT)

Report from: Tuesday, November 21, 2023 9:00 AM JST
Current time: Saturday, March 2, 2024 7:32 PM JST

Current weather – Weather history – Daily summaries
Weather forecast

Temperature12.0°C (53.6°F)
Dew point2.0°C (35.6°F)
Winds 4 kts (2.1 m/s, 4.6 mph) Vrb
Winds variableWinds variable from North (359.999999°) to East (100°)
Visibility6.2 mi. (10 km)
Clouds Few clouds 3,000 ft. (914 m)
Altimeter30.24 in.Hg (1024 mB)
Relative humidity50 %
Density altitude-613 ft. (-187 m)
Flight conditions Visual Meteorological Conditions
Raw dataRJTT 210000Z 05004KT 360V100 9999 FEW030 12/02 Q1024 BECMG TL0100 08005KT
An error has occurred. This application may no longer respond until reloaded. Reload 🗙